createdAt,value
2023-12-30T00:00:49.269Z,11.00
2023-12-30T00:03:16.202Z,9.55
2023-12-30T00:05:43.224Z,7.53
2023-12-30T00:08:10.493Z,13.60
2023-12-30T00:10:37.756Z,8.57
2023-12-30T00:13:05.144Z,9.30
2023-12-30T00:15:32.518Z,13.45
2023-12-30T00:17:59.832Z,4.47
2023-12-30T00:20:27.190Z,10.10
2023-12-30T00:22:54.137Z,7.35
2023-12-30T00:25:23.118Z,9.32
2023-12-30T00:27:52.976Z,7.05
2023-12-30T00:30:20.403Z,10.10
2023-12-30T00:32:47.930Z,8.30
2023-12-30T00:35:15.271Z,12.60
2023-12-30T00:37:42.243Z,6.95
2023-12-30T00:40:09.667Z,11.95
2023-12-30T00:42:37.163Z,8.10
2023-12-30T00:45:04.878Z,10.53
2023-12-30T00:47:31.742Z,9.07
2023-12-30T00:49:59.088Z,20.65
2023-12-30T00:52:26.581Z,8.82
2023-12-30T00:54:53.863Z,9.70
2023-12-30T00:57:21.132Z,6.73
2023-12-30T00:59:49.635Z,7.18
2023-12-30T01:02:16.426Z,8.20
2023-12-30T01:04:44.378Z,10.70
2023-12-30T01:07:12.175Z,9.48
2023-12-30T01:09:39.459Z,8.83
2023-12-30T01:12:06.961Z,7.18
2023-12-30T01:14:34.387Z,14.80
2023-12-30T01:17:01.622Z,6.43
2023-12-30T01:19:29.502Z,10.50
2023-12-30T01:21:56.798Z,8.03
2023-12-30T01:24:24.062Z,8.88
2023-12-30T01:26:51.375Z,11.27
2023-12-30T01:29:18.629Z,8.35
2023-12-30T01:31:47.680Z,8.80
2023-12-30T01:34:15.213Z,9.03
2023-12-30T01:36:42.618Z,12.18
2023-12-30T01:39:09.457Z,8.90
2023-12-30T01:41:36.698Z,13.95
2023-12-30T01:44:03.957Z,9.43
2023-12-30T01:46:31.715Z,8.77
2023-12-30T01:48:59.132Z,13.57
2023-12-30T01:51:27.011Z,10.63
2023-12-30T01:53:54.664Z,9.20
2023-12-30T01:56:23.912Z,9.50
2023-12-30T01:58:52.813Z,9.50
2023-12-30T02:01:22.987Z,10.25
2023-12-30T02:03:51.037Z,7.07
2023-12-30T02:06:18.487Z,8.55
2023-12-30T02:08:45.856Z,8.10
2023-12-30T02:11:15.171Z,17.93
2023-12-30T02:13:45.996Z,13.55
2023-12-30T02:16:13.460Z,10.80
2023-12-30T02:18:41.085Z,9.18
2023-12-30T02:21:08.527Z,11.98
2023-12-30T02:23:35.789Z,5.17
2023-12-30T02:26:03.404Z,10.45
2023-12-30T02:28:30.794Z,7.57
2023-12-30T02:30:58.192Z,11.52
2023-12-30T02:33:25.229Z,5.75
2023-12-30T02:35:53.463Z,9.13
2023-12-30T02:38:21.133Z,9.50
2023-12-30T02:40:49.163Z,8.98
2023-12-30T02:43:16.464Z,12.27
2023-12-30T02:45:43.856Z,12.98
2023-12-30T02:48:11.648Z,7.47
2023-12-30T02:50:39.673Z,15.90
2023-12-30T02:53:06.889Z,9.50
2023-12-30T02:55:34.566Z,14.50
2023-12-30T02:58:01.899Z,7.40
2023-12-30T03:00:29.166Z,17.07
2023-12-30T03:02:56.476Z,11.65
2023-12-30T03:05:23.821Z,12.48
2023-12-30T03:07:50.782Z,10.18
2023-12-30T03:10:17.701Z,8.82
2023-12-30T03:12:45.013Z,13.10
2023-12-30T03:15:12.336Z,13.35
2023-12-30T03:17:39.268Z,8.50
2023-12-30T03:20:11.001Z,9.55
2023-12-30T03:22:38.992Z,12.00
2023-12-30T03:25:06.918Z,11.37
2023-12-30T03:27:33.801Z,9.10
2023-12-30T03:30:01.068Z,9.00
2023-12-30T03:32:29.545Z,10.95
2023-12-30T03:34:57.480Z,10.77
2023-12-30T03:37:25.246Z,13.37
2023-12-30T03:39:53.260Z,10.05
2023-12-30T03:42:20.668Z,8.48
2023-12-30T03:44:48.012Z,19.27
2023-12-30T03:47:15.251Z,14.25
2023-12-30T03:49:42.632Z,14.47
2023-12-30T03:52:09.988Z,10.57
2023-12-30T03:54:37.925Z,9.23
2023-12-30T03:57:05.265Z,10.27
2023-12-30T03:59:32.490Z,12.52
2023-12-30T04:01:59.946Z,12.60
2023-12-30T04:04:27.313Z,13.18
2023-12-30T04:06:54.613Z,13.48
2023-12-30T04:09:21.924Z,7.60
2023-12-30T04:11:49.194Z,11.98
2023-12-30T04:14:16.642Z,5.87
2023-12-30T04:16:43.880Z,11.57
2023-12-30T04:19:11.256Z,13.20
2023-12-30T04:21:38.693Z,6.93
2023-12-30T04:24:05.889Z,13.00
2023-12-30T04:26:33.140Z,8.97
2023-12-30T04:29:01.493Z,5.47
2023-12-30T04:31:28.810Z,9.50
2023-12-30T04:33:56.216Z,10.02
2023-12-30T04:36:24.384Z,12.02
2023-12-30T04:38:52.878Z,8.43
2023-12-30T04:41:22.294Z,6.93
2023-12-30T04:43:49.740Z,8.75
2023-12-30T04:46:16.981Z,13.00
2023-12-30T04:48:44.340Z,10.48
2023-12-30T04:51:11.904Z,8.63
2023-12-30T04:53:39.758Z,8.52
2023-12-30T04:56:09.488Z,15.65
2023-12-30T04:58:36.844Z,9.20
2023-12-30T05:01:04.603Z,10.57
2023-12-30T05:03:31.892Z,6.20
2023-12-30T05:05:59.119Z,9.88
2023-12-30T05:08:26.320Z,11.65
2023-12-30T05:10:53.527Z,9.50
2023-12-30T05:13:21.666Z,10.85
2023-12-30T05:15:50.957Z,13.87
2023-12-30T05:18:18.492Z,8.75
2023-12-30T05:20:45.808Z,11.10
2023-12-30T05:23:13.050Z,6.75
2023-12-30T05:25:40.294Z,11.18
2023-12-30T05:28:07.510Z,15.50
2023-12-30T05:30:34.823Z,10.23
2023-12-30T05:33:02.379Z,14.20
2023-12-30T05:35:29.836Z,16.05
2023-12-30T05:37:57.171Z,12.90
2023-12-30T05:40:24.592Z,10.20
2023-12-30T05:42:51.865Z,6.65
2023-12-30T05:45:19.162Z,11.93
2023-12-30T05:47:46.563Z,9.95
2023-12-30T05:50:14.130Z,9.52
2023-12-30T05:52:41.624Z,16.07
2023-12-30T05:55:09.184Z,8.25
2023-12-30T05:57:36.481Z,7.75
2023-12-30T06:00:04.228Z,12.32
2023-12-30T06:02:39.757Z,8.48
2023-12-30T06:05:07.443Z,7.97
2023-12-30T06:07:35.919Z,13.32
2023-12-30T06:10:02.843Z,13.63
2023-12-30T06:12:30.103Z,8.07
2023-12-30T06:14:57.411Z,16.58
2023-12-30T06:17:24.191Z,13.50
2023-12-30T06:19:51.830Z,15.45
2023-12-30T06:22:18.707Z,9.55
2023-12-30T06:24:46.117Z,12.07
2023-12-30T06:27:13.394Z,12.10
2023-12-30T06:29:40.660Z,9.13
2023-12-30T06:32:08.595Z,18.00
2023-12-30T06:34:36.183Z,13.98
2023-12-30T06:37:03.677Z,16.92
2023-12-30T06:39:30.524Z,14.07
2023-12-30T06:42:01.657Z,10.67
2023-12-30T06:44:29.378Z,17.38
2023-12-30T06:46:56.657Z,15.13
2023-12-30T06:49:24.046Z,14.75
2023-12-30T06:51:51.397Z,12.55
2023-12-30T06:54:18.230Z,10.63
2023-12-30T06:56:45.537Z,8.23
2023-12-30T06:59:15.474Z,13.90
2023-12-30T07:01:43.140Z,9.60
2023-12-30T07:04:11.180Z,11.63
2023-12-30T07:06:38.446Z,12.87
2023-12-30T07:09:06.669Z,10.35
2023-12-30T07:11:33.863Z,19.85
2023-12-30T07:14:01.132Z,12.98
2023-12-30T07:16:28.523Z,11.70
2023-12-30T07:18:56.044Z,15.73
2023-12-30T07:21:23.408Z,7.55
2023-12-30T07:23:50.572Z,12.50
2023-12-30T07:26:17.877Z,16.75
2023-12-30T07:28:45.072Z,14.15
2023-12-30T07:31:12.663Z,18.80
2023-12-30T07:33:39.639Z,9.07
2023-12-30T07:36:07.392Z,11.43
2023-12-30T07:38:34.712Z,14.10
2023-12-30T07:41:02.008Z,12.85
2023-12-30T07:43:29.277Z,16.60
2023-12-30T07:45:56.654Z,12.35
2023-12-30T07:48:24.223Z,16.15
2023-12-30T07:50:51.453Z,15.75
2023-12-30T07:53:18.686Z,15.30
2023-12-30T07:55:46.087Z,16.80
2023-12-30T07:58:13.939Z,12.77
2023-12-30T08:00:41.323Z,14.85
2023-12-30T08:03:08.569Z,7.65
2023-12-30T08:05:35.885Z,17.25
2023-12-30T08:08:04.750Z,9.43
2023-12-30T08:10:33.841Z,8.43
2023-12-30T08:13:01.518Z,9.60
2023-12-30T08:15:29.453Z,22.02
2023-12-30T08:17:56.813Z,11.23
2023-12-30T08:20:24.094Z,7.83
2023-12-30T08:22:51.888Z,17.52
2023-12-30T08:25:19.081Z,15.90
2023-12-30T08:27:46.376Z,15.23
2023-12-30T08:30:14.223Z,13.07
2023-12-30T08:32:41.489Z,10.33
2023-12-30T08:35:10.031Z,17.67
2023-12-30T08:37:37.511Z,16.63
2023-12-30T08:40:10.563Z,12.50
2023-12-30T08:42:37.917Z,17.35
2023-12-30T08:45:08.699Z,11.83
2023-12-30T08:47:36.365Z,15.25
2023-12-30T08:50:05.155Z,17.25
2023-12-30T08:52:32.750Z,13.00
2023-12-30T08:55:00.509Z,19.20
2023-12-30T08:57:27.979Z,20.87
2023-12-30T08:59:55.586Z,11.07
2023-12-30T09:02:24.139Z,17.15
2023-12-30T09:04:51.822Z,12.68
2023-12-30T09:07:19.303Z,20.25
2023-12-30T09:09:46.593Z,20.80
2023-12-30T09:12:13.828Z,19.02
2023-12-30T09:14:41.045Z,20.73
2023-12-30T09:17:08.889Z,15.63
2023-12-30T09:19:36.269Z,13.77
2023-12-30T09:22:03.987Z,14.80
2023-12-30T09:24:31.286Z,11.63
2023-12-30T09:26:58.543Z,20.83
2023-12-30T09:29:25.776Z,15.85
2023-12-30T09:31:53.378Z,15.27
2023-12-30T09:34:30.006Z,22.30
2023-12-30T09:37:05.848Z,17.08
2023-12-30T09:39:33.109Z,16.35
2023-12-30T09:42:00.470Z,13.05
2023-12-30T09:44:27.906Z,13.52
2023-12-30T09:46:55.590Z,13.20
2023-12-30T09:49:23.324Z,19.63
2023-12-30T09:51:50.777Z,14.10
2023-12-30T09:54:18.055Z,11.18
2023-12-30T09:56:46.055Z,18.48
2023-12-30T09:59:13.773Z,10.77
2023-12-30T10:01:41.387Z,17.50
2023-12-30T10:04:08.809Z,14.55
2023-12-30T10:06:36.192Z,12.55
2023-12-30T10:09:03.796Z,14.40
2023-12-30T10:11:31.356Z,13.60
2023-12-30T10:13:58.648Z,13.65
2023-12-30T10:16:25.992Z,15.35
2023-12-30T10:18:54.225Z,23.02
2023-12-30T10:21:21.561Z,14.30
2023-12-30T10:23:52.484Z,17.77
2023-12-30T10:26:20.503Z,16.95
2023-12-30T10:28:47.928Z,15.77
2023-12-30T10:31:18.184Z,19.70
2023-12-30T10:33:49.095Z,11.23
2023-12-30T10:36:17.538Z,9.60
2023-12-30T10:38:45.194Z,10.60
2023-12-30T10:41:13.438Z,13.35
2023-12-30T10:43:40.858Z,12.75
2023-12-30T10:46:12.787Z,14.50
2023-12-30T10:48:57.121Z,13.70
2023-12-30T10:51:26.308Z,15.90
2023-12-30T10:54:07.940Z,15.52
2023-12-30T10:56:41.481Z,13.18
2023-12-30T10:59:08.918Z,14.98
2023-12-30T11:01:37.585Z,15.13
2023-12-30T11:04:12.705Z,11.40
2023-12-30T11:06:58.139Z,15.40
2023-12-30T11:09:32.221Z,15.75
2023-12-30T11:12:03.637Z,12.57
2023-12-30T11:14:32.620Z,15.73
2023-12-30T11:16:59.925Z,31.95
2023-12-30T11:19:30.208Z,15.80
2023-12-30T11:22:00.485Z,12.00
2023-12-30T11:24:28.292Z,16.42
2023-12-30T11:26:56.419Z,20.73
2023-12-30T11:29:27.941Z,10.13
2023-12-30T11:31:56.649Z,17.25
2023-12-30T11:34:25.604Z,16.40
2023-12-30T11:36:54.150Z,14.90
2023-12-30T11:39:33.157Z,14.17
2023-12-30T11:42:00.802Z,18.15
2023-12-30T11:44:31.185Z,13.25
2023-12-30T11:46:59.645Z,22.48
2023-12-30T11:49:27.566Z,18.10
2023-12-30T11:52:05.427Z,24.47
2023-12-30T11:54:36.965Z,19.95
2023-12-30T11:57:07.669Z,20.77
2023-12-30T11:59:35.022Z,16.10
2023-12-30T12:02:09.713Z,23.73
2023-12-30T12:04:37.485Z,12.50
2023-12-30T12:07:04.868Z,25.27
2023-12-30T12:09:32.110Z,25.95
2023-12-30T12:11:59.413Z,18.67
2023-12-30T12:14:27.142Z,31.15
2023-12-30T12:16:54.056Z,19.40
2023-12-30T12:19:21.432Z,20.65
2023-12-30T12:21:49.077Z,19.00
2023-12-30T12:24:16.113Z,25.15
2023-12-30T12:26:43.160Z,25.25
2023-12-30T12:29:10.379Z,23.67
2023-12-30T12:31:37.639Z,22.88
2023-12-30T12:34:24.008Z,32.15
2023-12-30T12:36:51.423Z,23.40
2023-12-30T12:39:18.973Z,29.40
2023-12-30T12:41:46.630Z,23.93
2023-12-30T12:44:13.858Z,22.88
2023-12-30T12:46:41.219Z,30.70
2023-12-30T12:49:08.374Z,32.33
2023-12-30T12:51:38.062Z,18.40
2023-12-30T12:54:05.402Z,24.23
2023-12-30T12:56:33.300Z,19.98
2023-12-30T12:59:00.530Z,22.33
2023-12-30T13:01:28.426Z,27.58
2023-12-30T13:03:57.097Z,26.52
2023-12-30T13:06:24.438Z,20.27
2023-12-30T13:08:53.483Z,29.90
2023-12-30T13:11:37.747Z,32.78
2023-12-30T13:14:10.597Z,27.55
2023-12-30T13:16:37.902Z,21.15
2023-12-30T13:19:05.293Z,19.53
2023-12-30T13:21:34.106Z,18.33
2023-12-30T13:24:01.330Z,18.88
2023-12-30T13:26:28.708Z,12.23
2023-12-30T13:28:55.988Z,17.00
2023-12-30T13:31:27.091Z,18.07
2023-12-30T13:33:55.503Z,14.90
2023-12-30T13:36:26.532Z,18.63
2023-12-30T13:39:00.828Z,16.92
2023-12-30T13:41:27.692Z,11.45
2023-12-30T13:43:55.660Z,15.40
2023-12-30T13:46:41.889Z,14.38
2023-12-30T13:49:44.012Z,11.02
2023-12-30T13:52:11.405Z,14.48
2023-12-30T13:54:43.029Z,15.93
2023-12-30T13:57:14.178Z,17.53
2023-12-30T13:59:47.500Z,19.65
2023-12-30T14:02:19.460Z,12.43
2023-12-30T14:04:58.396Z,13.88
2023-12-30T14:07:28.939Z,10.40
2023-12-30T14:10:00.554Z,10.33
2023-12-30T14:12:29.706Z,11.35
2023-12-30T14:14:57.674Z,12.35
2023-12-30T14:17:31.641Z,14.40
2023-12-30T14:20:01.256Z,14.20
2023-12-30T14:22:28.847Z,15.53
2023-12-30T14:24:57.639Z,13.82
2023-12-30T14:27:25.071Z,13.20
2023-12-30T14:29:59.776Z,17.17
2023-12-30T14:32:27.112Z,21.38
2023-12-30T14:34:54.394Z,16.63
2023-12-30T14:37:21.755Z,13.02
2023-12-30T14:39:49.201Z,15.05
2023-12-30T14:42:18.161Z,14.77
2023-12-30T14:44:45.453Z,16.98
2023-12-30T14:47:13.200Z,13.00
2023-12-30T14:49:40.537Z,11.93
2023-12-30T14:52:07.431Z,13.02
2023-12-30T14:54:34.300Z,16.00
2023-12-30T14:57:02.166Z,16.13
2023-12-30T14:59:29.503Z,23.33
2023-12-30T15:01:58.211Z,19.38
2023-12-30T15:04:25.769Z,18.52
2023-12-30T15:06:54.161Z,18.08
2023-12-30T15:09:22.645Z,17.00
2023-12-30T15:11:50.226Z,18.50
2023-12-30T15:14:17.438Z,15.38
2023-12-30T15:16:44.337Z,18.40
2023-12-30T15:19:11.705Z,18.02
2023-12-30T15:21:39.066Z,13.30
2023-12-30T15:24:06.297Z,11.53
2023-12-30T15:26:33.575Z,23.95
2023-12-30T15:29:00.782Z,17.73
2023-12-30T15:31:28.161Z,22.65
2023-12-30T15:33:55.109Z,18.88
2023-12-30T15:36:23.272Z,15.33
2023-12-30T15:38:50.926Z,9.00
2023-12-30T15:41:22.217Z,18.88
2023-12-30T15:43:49.652Z,18.88
2023-12-30T15:46:16.964Z,17.25
2023-12-30T15:48:44.365Z,27.30
2023-12-30T15:51:11.790Z,16.42
2023-12-30T15:53:40.143Z,14.02
2023-12-30T15:56:07.665Z,10.88
2023-12-30T15:58:35.308Z,30.40
2023-12-30T16:01:02.960Z,10.83
2023-12-30T16:03:30.235Z,15.43
2023-12-30T16:05:57.562Z,10.73
2023-12-30T16:08:24.955Z,15.55
2023-12-30T16:10:51.936Z,16.48
2023-12-30T16:13:19.295Z,10.70
2023-12-30T16:15:50.990Z,12.35
2023-12-30T16:18:18.124Z,9.43
2023-12-30T16:20:46.302Z,14.20
2023-12-30T16:23:13.611Z,12.90
2023-12-30T16:25:41.439Z,10.27
2023-12-30T16:28:08.416Z,12.75
2023-12-30T16:30:35.780Z,14.52
2023-12-30T16:33:03.253Z,13.98
2023-12-30T16:35:30.686Z,11.13
2023-12-30T16:37:57.956Z,10.50
2023-12-30T16:40:28.327Z,10.60
2023-12-30T16:42:55.950Z,19.23
2023-12-30T16:45:22.861Z,9.68
2023-12-30T16:47:50.224Z,15.48
2023-12-30T16:50:19.115Z,14.47
2023-12-30T16:52:46.584Z,14.93
2023-12-30T16:55:14.215Z,13.52
2023-12-30T16:57:41.518Z,13.85
2023-12-30T17:00:10.926Z,9.68
2023-12-30T17:02:38.835Z,15.87
2023-12-30T17:05:07.006Z,14.93
2023-12-30T17:07:34.587Z,9.98
2023-12-30T17:10:05.641Z,9.57
2023-12-30T17:12:33.042Z,7.72
2023-12-30T17:15:00.417Z,18.03
2023-12-30T17:17:27.762Z,9.60
2023-12-30T17:19:55.051Z,11.63
2023-12-30T17:22:23.440Z,7.97
2023-12-30T17:24:51.013Z,10.07
2023-12-30T17:27:18.319Z,4.90
2023-12-30T17:29:45.172Z,10.30
2023-12-30T17:32:12.560Z,12.15
2023-12-30T17:34:39.619Z,11.32
2023-12-30T17:37:07.417Z,13.15
2023-12-30T17:39:35.091Z,9.03
2023-12-30T17:42:02.501Z,11.70
2023-12-30T17:44:32.901Z,8.02
2023-12-30T17:47:00.566Z,8.82
2023-12-30T17:49:27.544Z,8.27
2023-12-30T17:51:54.798Z,10.43
2023-12-30T17:54:21.648Z,7.85
2023-12-30T17:56:48.930Z,9.05
2023-12-30T17:59:17.277Z,9.52
2023-12-30T18:01:44.667Z,11.23
2023-12-30T18:04:13.020Z,7.97
2023-12-30T18:06:40.355Z,7.10
2023-12-30T18:09:07.672Z,8.85
2023-12-30T18:11:37.411Z,7.53
2023-12-30T18:14:04.783Z,10.40
2023-12-30T18:16:32.110Z,12.27
2023-12-30T18:18:59.424Z,9.52
2023-12-30T18:21:26.773Z,11.60
2023-12-30T18:23:54.009Z,14.95
2023-12-30T18:26:21.345Z,12.57
2023-12-30T18:28:48.337Z,8.03
2023-12-30T18:31:15.872Z,7.95
2023-12-30T18:33:43.267Z,8.45
2023-12-30T18:36:10.583Z,9.95
2023-12-30T18:38:37.913Z,15.48
2023-12-30T18:41:05.267Z,10.77
2023-12-30T18:43:32.265Z,9.95
2023-12-30T18:46:00.646Z,8.75
2023-12-30T18:48:27.687Z,6.55
2023-12-30T18:50:55.156Z,5.80
2023-12-30T18:53:22.384Z,12.17
2023-12-30T18:55:49.720Z,13.23
2023-12-30T18:58:16.999Z,7.65
2023-12-30T19:00:44.299Z,6.47
2023-12-30T19:03:11.509Z,6.28
2023-12-30T19:05:38.941Z,7.33
2023-12-30T19:08:06.667Z,10.18
2023-12-30T19:10:34.053Z,11.00
2023-12-30T19:13:01.665Z,8.77
2023-12-30T19:15:29.101Z,11.82
2023-12-30T19:17:56.494Z,8.50
2023-12-30T19:20:23.872Z,8.05
2023-12-30T19:22:51.134Z,9.65
2023-12-30T19:25:18.011Z,10.27
2023-12-30T19:27:46.858Z,7.90
2023-12-30T19:30:14.356Z,9.80
2023-12-30T19:32:41.630Z,6.78
2023-12-30T19:35:11.308Z,7.78
2023-12-30T19:37:43.252Z,9.52
2023-12-30T19:40:11.196Z,13.95
2023-12-30T19:42:38.451Z,9.10
2023-12-30T19:45:06.897Z,20.63
2023-12-30T19:47:35.252Z,8.82
2023-12-30T19:50:03.710Z,7.57
2023-12-30T19:52:30.991Z,8.25
2023-12-30T19:54:58.215Z,11.50
2023-12-30T19:57:25.443Z,7.97
2023-12-30T19:59:52.657Z,8.48
2023-12-30T20:02:20.439Z,9.52
2023-12-30T20:04:47.242Z,6.78
2023-12-30T20:07:14.487Z,8.70
2023-12-30T20:09:43.311Z,8.25
2023-12-30T20:12:11.834Z,5.95
2023-12-30T20:14:39.534Z,10.23
2023-12-30T20:17:06.766Z,10.40
2023-12-30T20:19:35.659Z,12.50
2023-12-30T20:22:03.010Z,8.50
2023-12-30T20:24:31.024Z,7.95
2023-12-30T20:26:58.352Z,7.25
2023-12-30T20:29:25.307Z,6.38
2023-12-30T20:31:56.168Z,7.73
2023-12-30T20:34:25.234Z,6.65
2023-12-30T20:36:52.531Z,10.52
2023-12-30T20:39:19.914Z,8.57
2023-12-30T20:41:47.130Z,6.82
2023-12-30T20:44:14.422Z,5.47
2023-12-30T20:46:45.697Z,7.22
2023-12-30T20:49:13.462Z,5.28
2023-12-30T20:51:41.448Z,8.40
2023-12-30T20:54:08.715Z,7.68
2023-12-30T20:56:35.530Z,8.83
2023-12-30T20:59:02.787Z,6.07
2023-12-30T21:01:31.647Z,8.55
2023-12-30T21:03:59.388Z,7.78
2023-12-30T21:06:28.487Z,7.15
2023-12-30T21:08:55.758Z,6.87
2023-12-30T21:11:23.077Z,13.18
2023-12-30T21:13:50.391Z,8.07
2023-12-30T21:16:18.716Z,8.05
2023-12-30T21:18:48.040Z,7.15
2023-12-30T21:21:16.393Z,8.10
2023-12-30T21:23:43.329Z,6.28
2023-12-30T21:26:10.661Z,7.57
2023-12-30T21:28:38.028Z,9.32
2023-12-30T21:31:05.295Z,8.27
2023-12-30T21:33:32.877Z,7.43
2023-12-30T21:36:00.365Z,10.52
2023-12-30T21:38:28.367Z,9.45
2023-12-30T21:40:55.646Z,9.52
2023-12-30T21:43:23.486Z,7.07
2023-12-30T21:45:52.566Z,8.03
2023-12-30T21:48:19.751Z,9.05
2023-12-30T21:50:47.217Z,5.10
2023-12-30T21:53:14.598Z,6.10
2023-12-30T21:55:42.344Z,4.32
2023-12-30T21:58:09.714Z,7.67
2023-12-30T22:00:39.363Z,4.45
2023-12-30T22:03:07.775Z,7.47
2023-12-30T22:05:36.306Z,10.98
2023-12-30T22:08:03.394Z,6.07
2023-12-30T22:10:30.280Z,7.37
2023-12-30T22:12:57.527Z,6.00
2023-12-30T22:15:24.793Z,7.25
2023-12-30T22:17:52.080Z,8.05
2023-12-30T22:20:20.379Z,4.75
2023-12-30T22:22:47.724Z,4.77
2023-12-30T22:25:15.018Z,7.60
2023-12-30T22:27:42.291Z,7.28
2023-12-30T22:30:09.814Z,5.28
2023-12-30T22:32:37.544Z,7.15
2023-12-30T22:35:15.862Z,7.23
2023-12-30T22:37:43.632Z,5.97
2023-12-30T22:40:11.157Z,6.22
2023-12-30T22:42:41.165Z,7.38
2023-12-30T22:45:09.295Z,4.88
2023-12-30T22:47:39.160Z,6.63
2023-12-30T22:50:07.222Z,7.53
2023-12-30T22:52:34.809Z,6.82
2023-12-30T22:55:02.344Z,4.97
2023-12-30T22:57:29.655Z,6.70
2023-12-30T22:59:56.997Z,4.37
2023-12-30T23:02:24.323Z,4.63
2023-12-30T23:04:51.743Z,6.55
2023-12-30T23:07:19.042Z,5.05
2023-12-30T23:09:46.313Z,6.22
2023-12-30T23:12:17.450Z,5.87
2023-12-30T23:14:44.920Z,4.00
2023-12-30T23:17:15.934Z,5.22
2023-12-30T23:19:44.226Z,4.13
2023-12-30T23:22:11.609Z,5.43
2023-12-30T23:24:39.187Z,6.70
2023-12-30T23:27:06.728Z,6.90
2023-12-30T23:29:34.311Z,5.28
2023-12-30T23:32:01.552Z,4.65
2023-12-30T23:34:38.555Z,4.05
2023-12-30T23:37:10.230Z,6.37
2023-12-30T23:39:37.440Z,6.25
2023-12-30T23:42:04.900Z,5.30
2023-12-30T23:44:32.273Z,7.93
2023-12-30T23:46:59.636Z,9.38
2023-12-30T23:49:26.912Z,4.73
2023-12-30T23:51:54.151Z,7.00
2023-12-30T23:54:21.416Z,4.43
2023-12-30T23:56:48.654Z,5.97
2023-12-30T23:59:18.454Z,4.18
